Time;durP1;ratioP1;P1;durP2;ratioP2;P2;SDS_P1;SDS_P2;PMS_P1;PMS_P2;Temp;Humidity;BMP_temperature;BMP_pressure;BME280_temperature;BME280_humidity;BME280_pressure;Samples;Min_cycle;Max_cycle;Signal;HPM_P1;HPM_P2
2020/12/29 00:02:14;;;;;;;4.50;3.27;;;1.30;99.90;;;;;;5052940;28;20220;-67
2020/12/29 00:04:40;;;;;;;5.23;3.60;;;1.30;99.90;;;;;;5060015;28;20268;-64
2020/12/29 00:07:06;;;;;;;3.63;3.20;;;1.30;99.90;;;;;;5056401;28;20222;-65
2020/12/29 00:09:32;;;;;;;8.00;3.50;;;1.30;99.90;;;;;;5046891;28;20699;-61
2020/12/29 00:11:57;;;;;;;2.57;2.37;;;1.30;99.90;;;;;;5053100;28;20204;-64
2020/12/29 00:14:24;;;;;;;2.70;2.50;;;1.30;99.90;;;;;;5055186;28;20177;-62
2020/12/29 00:16:50;;;;;;;3.10;2.80;;;1.40;99.90;;;;;;5060638;28;20251;-61
2020/12/29 00:19:29;;;;;;;2.63;1.80;;;1.40;99.90;;;;;;5050185;28;20430;-61
2020/12/29 00:21:55;;;;;;;2.60;2.20;;;1.40;99.90;;;;;;5051966;28;20436;-63
2020/12/29 00:24:21;;;;;;;2.80;2.50;;;1.40;99.90;;;;;;5053462;28;20427;-61
2020/12/29 00:26:47;;;;;;;3.10;2.70;;;1.40;99.90;;;;;;5060802;28;20513;-67
2020/12/29 00:29:12;;;;;;;3.07;2.63;;;1.40;99.90;;;;;;5048963;28;20216;-64
2020/12/29 00:31:41;;;;;;;2.53;2.37;;;1.40;99.90;;;;;;5053917;28;20201;-62
2020/12/29 00:34:06;;;;;;;4.00;2.80;;;1.40;99.90;;;;;;5057566;28;20212;-64
2020/12/29 00:36:32;;;;;;;3.20;2.63;;;1.40;99.90;;;;;;5050393;28;20858;-65
2020/12/29 00:38:58;;;;;;;4.23;3.37;;;1.50;99.90;;;;;;5054315;28;20904;-60
2020/12/29 00:41:25;;;;;;;5.80;3.17;;;1.50;99.90;;;;;;5054231;28;20185;-66
2020/12/29 00:43:51;;;;;;;2.63;2.43;;;1.40;99.90;;;;;;5045964;28;20864;-62
2020/12/29 00:46:19;;;;;;;3.40;2.40;;;1.50;99.90;;;;;;5057714;28;20460;-62
2020/12/29 00:48:46;;;;;;;2.47;2.27;;;1.40;99.90;;;;;;5058050;28;20447;-63
2020/12/29 00:51:20;;;;;;;2.60;2.40;;;1.40;99.90;;;;;;5056585;28;20456;-64
2020/12/29 00:53:47;;;;;;;4.20;2.63;;;1.50;99.90;;;;;;5051630;28;20553;-63
2020/12/29 00:56:12;;;;;;;8.57;5.37;;;1.40;99.90;;;;;;5046654;28;20449;-66
2020/12/29 00:58:39;;;;;;;3.37;2.50;;;1.40;99.90;;;;;;5061405;28;20446;-62
2020/12/29 01:01:07;;;;;;;2.70;2.47;;;1.40;99.90;;;;;;5047665;28;20188;-62
2020/12/29 01:03:32;;;;;;;2.30;2.10;;;1.40;99.90;;;;;;5052991;28;20521;-65
2020/12/29 01:05:58;;;;;;;2.00;1.80;;;1.40;99.90;;;;;;5054999;28;21022;-63
2020/12/29 01:08:24;;;;;;;9.20;4.40;;;1.40;99.90;;;;;;5051801;28;20604;-64
2020/12/29 01:10:54;;;;;;;5.60;3.17;;;1.40;99.90;;;;;;5049448;28;20308;-65
2020/12/29 01:13:20;;;;;;;9.20;4.70;;;1.30;99.90;;;;;;5046514;28;20500;-65
2020/12/29 01:15:46;;;;;;;16.83;8.43;;;1.40;99.90;;;;;;5045431;28;20824;-62
2020/12/29 01:18:12;;;;;;;4.63;1.30;;;1.40;99.90;;;;;;5062441;28;20798;-62
2020/12/29 01:20:38;;;;;;;2.47;1.80;;;1.50;99.90;;;;;;5049572;28;21134;-64
2020/12/29 01:23:04;;;;;;;7.47;4.10;;;1.50;99.90;;;;;;5045189;28;20540;-61
2020/12/29 01:25:30;;;;;;;23.63;11.20;;;1.50;99.90;;;;;;5045877;28;20655;-64
2020/12/29 01:27:55;;;;;;;21.50;9.67;;;1.60;99.90;;;;;;5046278;28;20220;-61
2020/12/29 01:30:21;;;;;;;7.30;3.57;;;1.60;99.90;;;;;;5052309;28;20487;-66
2020/12/29 01:32:47;;;;;;;18.17;7.50;;;1.60;99.90;;;;;;5062657;28;20461;-65
2020/12/29 01:35:13;;;;;;;3.67;2.20;;;1.60;99.90;;;;;;5054569;28;20870;-61
2020/12/29 01:37:44;;;;;;;4.43;2.70;;;1.60;99.90;;;;;;5059887;28;20640;-61
2020/12/29 01:40:12;;;;;;;1.53;1.30;;;1.70;99.90;;;;;;5053880;28;20468;-60
2020/12/29 01:42:38;;;;;;;1.20;1.20;;;1.70;99.90;;;;;;5048273;28;21000;-61
2020/12/29 01:45:10;;;;;;;1.77;1.67;;;1.70;99.90;;;;;;5052344;28;20528;-64
2020/12/29 01:47:40;;;;;;;2.03;1.60;;;1.70;99.90;;;;;;5056766;28;20966;-62
2020/12/29 01:50:12;;;;;;;2.77;1.70;;;1.70;99.90;;;;;;5050294;28;20489;-66
2020/12/29 01:52:38;;;;;;;2.10;1.87;;;1.60;99.90;;;;;;5049863;28;20550;-64
2020/12/29 01:55:08;;;;;;;1.80;1.70;;;1.70;99.90;;;;;;5042783;28;20457;-62
2020/12/29 01:57:35;;;;;;;1.50;1.40;;;1.60;99.90;;;;;;5052782;28;20849;-60
2020/12/29 02:00:08;;;;;;;1.87;1.77;;;1.60;99.90;;;;;;5055249;28;20490;-62
2020/12/29 02:02:34;;;;;;;1.70;1.60;;;1.60;99.90;;;;;;5063238;28;20489;-61
2020/12/29 02:05:00;;;;;;;3.33;1.53;;;1.60;99.90;;;;;;5050346;28;20856;-61
2020/12/29 02:07:28;;;;;;;1.83;1.67;;;1.60;99.90;;;;;;5051842;28;20858;-63
2020/12/29 02:09:54;;;;;;;2.07;1.53;;;1.70;99.90;;;;;;5045602;28;20451;-61
2020/12/29 02:12:32;;;;;;;3.80;1.43;;;1.70;99.90;;;;;;5034156;28;20530;-62
2020/12/29 02:14:58;;;;;;;1.80;1.33;;;1.70;99.90;;;;;;5047245;28;21013;-64
2020/12/29 02:17:24;;;;;;;4.13;1.23;;;1.70;99.90;;;;;;5057677;28;20435;-61
2020/12/29 02:19:50;;;;;;;1.67;1.57;;;1.70;99.90;;;;;;5048646;28;20442;-61
2020/12/29 02:22:21;;;;;;;1.83;1.20;;;1.70;99.90;;;;;;5039566;28;20427;-60
2020/12/29 02:24:58;;;;;;;7.07;1.30;;;1.70;99.90;;;;;;5051860;28;20469;-61
2020/12/29 02:27:27;;;;;;;1.00;1.00;;;1.70;99.90;;;;;;5050096;28;20456;-61
2020/12/29 02:29:53;;;;;;;3.50;1.60;;;1.70;99.90;;;;;;5043073;28;20423;-61
2020/12/29 02:32:20;;;;;;;1.23;1.13;;;1.70;99.90;;;;;;5050968;28;20964;-64
2020/12/29 02:34:46;;;;;;;1.47;1.37;;;1.70;99.90;;;;;;5051843;28;20443;-65
2020/12/29 02:37:12;;;;;;;4.60;2.77;;;1.70;99.90;;;;;;5049938;28;20539;-62
2020/12/29 02:39:40;;;;;;;1.60;1.33;;;1.70;99.90;;;;;;5051926;28;20482;-64
2020/12/29 02:42:06;;;;;;;1.63;1.33;;;1.70;99.90;;;;;;5031474;28;20174;-63
2020/12/29 02:44:32;;;;;;;3.00;1.73;;;1.70;99.90;;;;;;5045370;28;20427;-61
2020/12/29 02:46:58;;;;;;;3.33;1.60;;;1.70;99.90;;;;;;5027866;28;20513;-62
2020/12/29 02:49:24;;;;;;;2.30;1.00;;;1.70;99.90;;;;;;5040152;28;20729;-61
2020/12/29 02:51:50;;;;;;;1.10;1.10;;;1.70;99.90;;;;;;5052913;28;20459;-65
2020/12/29 02:54:16;;;;;;;1.27;1.17;;;1.70;99.90;;;;;;5048407;28;20184;-61
2020/12/29 02:56:42;;;;;;;1.23;1.13;;;1.70;99.90;;;;;;5053219;28;20666;-61
2020/12/29 02:59:09;;;;;;;2.93;1.17;;;1.70;99.90;;;;;;5049411;28;20432;-62
2020/12/29 03:01:35;;;;;;;1.30;1.20;;;1.70;99.90;;;;;;5049738;28;20480;-61
2020/12/29 03:04:01;;;;;;;6.53;1.70;;;1.70;99.90;;;;;;5050880;28;20412;-60
2020/12/29 03:06:27;;;;;;;0.97;0.97;;;1.70;99.90;;;;;;5058028;28;20204;-62
2020/12/29 03:08:53;;;;;;;1.70;1.20;;;1.80;99.90;;;;;;5050111;28;20669;-62
2020/12/29 03:11:31;;;;;;;2.27;1.10;;;1.80;99.90;;;;;;5035871;28;20544;-63
2020/12/29 03:13:59;;;;;;;1.23;1.10;;;1.80;99.90;;;;;;5042979;28;20463;-60
2020/12/29 03:16:26;;;;;;;1.50;1.30;;;1.80;99.90;;;;;;5051608;28;20432;-61
2020/12/29 03:18:52;;;;;;;3.00;1.20;;;1.80;99.90;;;;;;5050044;28;20432;-61
2020/12/29 03:21:18;;;;;;;2.07;1.40;;;1.80;99.90;;;;;;5044682;28;20436;-61
2020/12/29 03:23:44;;;;;;;4.20;1.37;;;1.80;99.90;;;;;;5050181;28;20502;-61
2020/12/29 03:26:10;;;;;;;1.37;1.10;;;1.80;99.90;;;;;;5049585;28;20506;-62
2020/12/29 03:28:37;;;;;;;2.70;1.40;;;1.80;99.90;;;;;;5041822;28;20423;-61
2020/12/29 03:31:04;;;;;;;2.10;1.07;;;1.80;99.90;;;;;;5047755;28;20734;-61
2020/12/29 03:33:29;;;;;;;4.80;1.20;;;1.80;99.90;;;;;;5030349;28;20503;-63
2020/12/29 03:35:58;;;;;;;1.17;1.07;;;1.80;99.90;;;;;;5048705;28;20952;-61
2020/12/29 03:38:24;;;;;;;5.80;1.20;;;1.80;99.90;;;;;;5048740;28;20218;-61
2020/12/29 03:40:50;;;;;;;1.43;1.33;;;1.70;99.90;;;;;;5047331;28;20435;-61
2020/12/29 03:43:24;;;;;;;2.13;0.97;;;1.80;99.90;;;;;;5047016;28;22120;-61
2020/12/29 03:45:51;;;;;;;1.33;1.10;;;1.80;99.90;;;;;;5048044;28;20405;-61
2020/12/29 03:48:19;;;;;;;1.20;1.10;;;1.70;99.90;;;;;;5043206;28;20489;-64
2020/12/29 03:50:45;;;;;;;1.30;1.20;;;1.70;99.90;;;;;;5045752;28;20441;-61
2020/12/29 03:53:11;;;;;;;7.40;1.67;;;1.70;99.90;;;;;;5050022;28;20427;-61
2020/12/29 03:55:37;;;;;;;6.43;1.33;;;1.70;99.90;;;;;;5052559;28;20442;-61
2020/12/29 03:58:04;;;;;;;1.20;1.03;;;1.60;99.90;;;;;;5056661;28;20823;-61
2020/12/29 04:00:29;;;;;;;2.83;1.00;;;1.60;99.90;;;;;;5053154;28;20181;-62
2020/12/29 04:02:55;;;;;;;1.10;1.00;;;1.60;99.90;;;;;;5051293;28;20504;-59
2020/12/29 04:05:21;;;;;;;1.07;1.00;;;1.50;99.90;;;;;;5051774;28;20196;-61
2020/12/29 04:07:48;;;;;;;6.10;1.20;;;1.50;99.90;;;;;;5045396;28;20448;-65
2020/12/29 04:10:14;;;;;;;1.53;1.10;;;1.50;99.90;;;;;;5041139;28;20198;-61
2020/12/29 04:12:40;;;;;;;1.20;1.10;;;1.50;99.90;;;;;;5051336;28;20432;-60
2020/12/29 04:15:06;;;;;;;1.57;1.20;;;1.50;99.90;;;;;;5050238;28;20523;-63
2020/12/29 04:17:36;;;;;;;1.20;1.10;;;1.50;99.90;;;;;;5052609;28;20260;-64
2020/12/29 04:20:03;;;;;;;1.90;1.00;;;1.40;99.90;;;;;;5047114;28;20471;-61
2020/12/29 04:22:33;;;;;;;1.70;1.00;;;1.50;99.90;;;;;;5044675;28;20913;-61
2020/12/29 04:24:59;;;;;;;3.23;1.00;;;1.50;99.90;;;;;;5048979;28;20428;-63
2020/12/29 04:27:26;;;;;;;1.30;0.97;;;1.40;99.90;;;;;;5053196;28;20455;-61
2020/12/29 04:29:51;;;;;;;1.23;0.80;;;1.50;99.90;;;;;;5053525;28;20435;-60
2020/12/29 04:32:18;;;;;;;1.83;1.17;;;1.50;99.90;;;;;;5052324;28;20984;-61
2020/12/29 04:34:46;;;;;;;1.13;0.90;;;1.50;99.90;;;;;;5054156;28;20192;-61
2020/12/29 04:37:13;;;;;;;2.20;0.90;;;1.50;99.90;;;;;;5051319;28;21131;-62
2020/12/29 04:39:40;;;;;;;1.10;1.00;;;1.50;99.90;;;;;;5051609;28;20419;-61
2020/12/29 04:42:10;;;;;;;1.17;1.07;;;1.50;99.90;;;;;;5051014;28;20523;-61
2020/12/29 04:44:41;;;;;;;3.90;2.00;;;1.50;99.90;;;;;;5051272;28;20457;-61
2020/12/29 04:47:08;;;;;;;2.83;1.60;;;1.50;99.90;;;;;;5050908;28;20427;-61
2020/12/29 04:49:34;;;;;;;3.27;1.23;;;1.50;99.90;;;;;;5056220;28;20466;-62
2020/12/29 04:52:03;;;;;;;2.70;1.30;;;1.50;99.90;;;;;;5046460;28;20464;-61
2020/12/29 04:54:32;;;;;;;2.90;1.30;;;1.50;99.90;;;;;;5034351;28;20432;-63
2020/12/29 04:57:01;;;;;;;1.70;1.10;;;1.50;99.90;;;;;;5049328;28;20445;-61
2020/12/29 04:59:30;;;;;;;1.40;1.17;;;1.50;99.90;;;;;;5050224;28;20518;-64
2020/12/29 05:01:57;;;;;;;2.40;1.10;;;1.50;99.90;;;;;;5050494;28;20504;-63
2020/12/29 05:04:24;;;;;;;2.50;1.37;;;1.50;99.90;;;;;;5061116;28;20412;-65
2020/12/29 05:06:50;;;;;;;1.10;1.10;;;1.50;99.90;;;;;;5063266;23;20464;-57
2020/12/29 05:09:42;;;;;;;4.00;1.47;;;1.50;99.90;;;;;;5028175;28;20437;-56
2020/12/29 05:12:08;;;;;;;3.07;1.60;;;1.50;99.90;;;;;;5023603;28;20471;-55
2020/12/29 05:14:40;;;;;;;4.07;1.40;;;1.60;99.90;;;;;;5031223;28;20441;-56
2020/12/29 05:17:06;;;;;;;2.93;1.50;;;1.50;99.90;;;;;;5029015;28;20867;-58
2020/12/29 05:19:33;;;;;;;2.93;1.27;;;1.60;99.90;;;;;;5017114;28;20488;-57
2020/12/29 05:21:58;;;;;;;1.10;1.00;;;1.50;99.90;;;;;;5029074;28;20675;-57
2020/12/29 05:24:24;;;;;;;1.77;1.33;;;1.50;99.90;;;;;;5030336;28;20926;-57
2020/12/29 05:27:00;;;;;;;2.87;1.23;;;1.50;99.90;;;;;;5028765;28;20221;-58
2020/12/29 05:29:29;;;;;;;1.43;1.33;;;1.50;99.90;;;;;;5027536;28;20188;-56
2020/12/29 05:31:55;;;;;;;3.33;1.40;;;1.50;99.90;;;;;;5031291;28;20448;-59
2020/12/29 05:34:23;;;;;;;7.70;2.17;;;1.50;99.90;;;;;;5031312;28;20423;-60
2020/12/29 05:36:50;;;;;;;1.70;1.20;;;1.50;99.90;;;;;;5031382;28;20200;-58
2020/12/29 05:39:16;;;;;;;4.77;1.23;;;1.60;99.90;;;;;;5031461;28;20880;-59
2020/12/29 05:41:47;;;;;;;3.40;1.30;;;1.50;99.90;;;;;;5029692;28;20436;-55
2020/12/29 05:44:27;;;;;;;5.20;1.43;;;1.60;99.90;;;;;;5030593;28;20428;-57
2020/12/29 05:47:19;;;;;;;1.87;1.43;;;1.60;99.90;;;;;;5026848;28;20456;-58
2020/12/29 05:49:44;;;;;;;3.53;1.50;;;1.60;99.90;;;;;;5025726;28;20423;-56
2020/12/29 05:52:12;;;;;;;3.87;1.50;;;1.60;99.90;;;;;;5029264;28;20974;-57
2020/12/29 05:54:40;;;;;;;3.37;1.20;;;1.60;99.90;;;;;;5025541;28;20206;-58
2020/12/29 05:57:05;;;;;;;5.43;1.60;;;1.60;99.90;;;;;;5029693;28;20524;-60
2020/12/29 05:59:31;;;;;;;3.57;1.27;;;1.60;99.90;;;;;;5030780;28;20519;-57
2020/12/29 06:01:59;;;;;;;5.03;1.70;;;1.60;99.90;;;;;;5023789;28;20194;-57
2020/12/29 06:04:27;;;;;;;2.10;1.40;;;1.60;99.90;;;;;;5013663;28;20469;-56
2020/12/29 06:07:04;;;;;;;6.27;1.73;;;1.60;99.90;;;;;;5028949;28;20448;-59
2020/12/29 06:09:31;;;;;;;6.83;1.50;;;1.60;99.90;;;;;;5031463;28;20424;-58
2020/12/29 06:11:59;;;;;;;3.83;1.37;;;1.60;99.90;;;;;;5021362;28;20461;-58
2020/12/29 06:14:26;;;;;;;5.13;1.77;;;1.60;99.90;;;;;;5021437;28;20525;-58
2020/12/29 06:16:56;;;;;;;2.10;1.17;;;1.60;99.90;;;;;;5031342;28;20439;-57
2020/12/29 06:19:29;;;;;;;2.47;1.10;;;1.60;99.90;;;;;;5031271;28;20463;-57
2020/12/29 06:22:09;;;;;;;6.97;1.40;;;1.60;99.90;;;;;;5017672;28;20942;-58
2020/12/29 06:24:38;;;;;;;8.13;1.70;;;1.60;99.90;;;;;;5028455;28;20436;-58
2020/12/29 06:27:07;;;;;;;4.03;1.20;;;1.60;99.90;;;;;;5011283;28;20425;-57
2020/12/29 06:29:40;;;;;;;5.40;1.80;;;1.60;99.90;;;;;;5021562;28;20419;-57
2020/12/29 06:32:19;;;;;;;4.20;1.53;;;1.60;99.90;;;;;;5026507;28;20482;-59
2020/12/29 06:34:45;;;;;;;4.30;1.60;;;1.70;99.90;;;;;;5031334;28;20424;-58
2020/12/29 06:37:23;;;;;;;2.10;1.20;;;1.70;99.90;;;;;;5030333;28;20986;-58
2020/12/29 06:39:53;;;;;;;2.33;1.47;;;1.70;99.90;;;;;;5031129;28;20876;-57
2020/12/29 06:42:19;;;;;;;6.27;1.53;;;1.70;99.90;;;;;;5025300;28;20426;-57
2020/12/29 06:44:55;;;;;;;2.10;1.30;;;1.70;99.90;;;;;;5030289;28;20437;-57
2020/12/29 06:47:23;;;;;;;1.40;1.30;;;1.70;99.90;;;;;;5015766;28;20456;-57
2020/12/29 06:49:51;;;;;;;2.30;1.20;;;1.70;99.90;;;;;;5027098;28;20443;-59
2020/12/29 06:52:25;;;;;;;2.83;1.50;;;1.70;99.90;;;;;;5031636;28;20468;-59
2020/12/29 06:54:59;;;;;;;5.70;1.47;;;1.70;99.90;;;;;;5025877;28;20804;-58
2020/12/29 06:57:33;;;;;;;4.53;1.83;;;1.70;99.90;;;;;;5020848;28;20467;-58
2020/12/29 07:00:01;;;;;;;4.90;1.37;;;1.70;99.90;;;;;;5031612;28;20424;-58
2020/12/29 07:02:35;;;;;;;3.70;1.63;;;1.70;99.90;;;;;;5035031;28;20431;-58
2020/12/29 07:05:15;;;;;;;3.60;1.40;;;1.70;99.90;;;;;;5018878;28;21366;-59
2020/12/29 07:07:49;;;;;;;1.73;1.20;;;1.70;99.90;;;;;;5014126;28;20468;-57
2020/12/29 07:10:15;;;;;;;2.93;1.30;;;1.80;99.90;;;;;;5020241;28;20420;-59
2020/12/29 07:12:51;;;;;;;2.97;1.40;;;1.80;99.90;;;;;;5016240;28;20801;-58
2020/12/29 07:15:20;;;;;;;3.50;1.40;;;1.80;99.90;;;;;;5027841;28;20847;-58
2020/12/29 07:17:57;;;;;;;3.27;1.57;;;1.80;99.90;;;;;;5024198;28;20609;-56
2020/12/29 07:20:26;;;;;;;3.03;1.43;;;1.90;99.90;;;;;;5026718;28;20427;-59
2020/12/29 07:23:14;;;;;;;2.17;1.30;;;1.90;99.90;;;;;;5026266;28;20436;-57
2020/12/29 07:25:48;;;;;;;9.60;2.17;;;1.90;99.90;;;;;;5025379;28;20720;-57
2020/12/29 07:28:17;;;;;;;2.60;1.93;;;1.90;99.90;;;;;;5017657;28;20442;-58
2020/12/29 07:30:44;;;;;;;10.80;1.73;;;1.90;99.90;;;;;;5027104;28;20452;-56
2020/12/29 07:33:10;;;;;;;3.20;1.60;;;1.90;99.90;;;;;;5024670;28;20503;-57
2020/12/29 07:35:38;;;;;;;3.70;1.37;;;2.00;99.90;;;;;;5021537;28;20931;-59
2020/12/29 07:38:13;;;;;;;1.87;1.33;;;2.00;99.90;;;;;;5024961;28;20284;-56
2020/12/29 07:40:40;;;;;;;1.97;1.47;;;2.10;99.90;;;;;;5029107;28;20430;-57
2020/12/29 07:43:07;;;;;;;3.30;1.90;;;2.10;99.90;;;;;;5024351;28;20530;-55
2020/12/29 07:45:34;;;;;;;3.63;1.50;;;2.10;99.90;;;;;;5021893;28;20865;-56
2020/12/29 07:48:01;;;;;;;8.87;1.73;;;2.10;99.90;;;;;;5018257;28;20457;-56
2020/12/29 07:50:27;;;;;;;4.07;3.30;;;2.20;99.90;;;;;;5025612;28;20502;-57
2020/12/29 07:53:07;;;;;;;3.63;1.40;;;2.20;99.90;;;;;;5022656;28;20428;-57
2020/12/29 07:55:33;;;;;;;3.00;1.53;;;2.30;99.90;;;;;;5022806;28;20521;-55
2020/12/29 07:58:03;;;;;;;2.43;1.30;;;2.30;99.90;;;;;;5024985;28;20482;-58
2020/12/29 08:00:29;;;;;;;2.13;1.37;;;2.30;99.90;;;;;;5021733;28;20515;-56
2020/12/29 08:02:55;;;;;;;3.20;1.60;;;2.30;99.90;;;;;;5025055;28;21014;-57
2020/12/29 08:05:23;;;;;;;1.77;1.27;;;2.40;99.90;;;;;;5028128;28;20447;-57
2020/12/29 08:07:55;;;;;;;15.27;1.70;;;2.40;99.90;;;;;;5025096;28;20994;-57
2020/12/29 08:10:30;;;;;;;10.67;1.70;;;2.50;99.90;;;;;;5022960;28;20436;-55
2020/12/29 08:13:00;;;;;;;7.83;1.70;;;2.50;99.90;;;;;;5010979;28;21103;-58
2020/12/29 08:15:34;;;;;;;2.00;1.57;;;2.50;99.90;;;;;;5025960;28;20452;-57
2020/12/29 08:18:10;;;;;;;5.13;2.37;;;2.50;99.90;;;;;;5013421;28;20440;-57
2020/12/29 08:20:50;;;;;;;1.87;1.67;;;2.60;99.90;;;;;;5020915;28;20440;-56
2020/12/29 08:23:17;;;;;;;6.57;2.40;;;2.60;99.90;;;;;;5015932;28;20531;-55
2020/12/29 08:25:54;;;;;;;3.87;2.70;;;2.70;99.90;;;;;;5034037;28;20555;-58
2020/12/29 08:28:25;;;;;;;2.93;1.93;;;2.60;99.90;;;;;;5010225;28;20560;-58
2020/12/29 08:31:08;;;;;;;2.23;1.80;;;2.70;99.90;;;;;;5024644;28;20476;-57
2020/12/29 08:33:38;;;;;;;5.40;1.67;;;2.70;99.90;;;;;;5024843;28;20455;-57
2020/12/29 08:36:04;;;;;;;2.50;1.47;;;2.70;99.90;;;;;;5023505;28;20183;-57
2020/12/29 08:38:42;;;;;;;4.50;1.30;;;2.70;99.90;;;;;;5020017;28;20496;-59
2020/12/29 08:41:07;;;;;;;2.73;1.70;;;2.70;99.90;;;;;;5012438;28;20441;-58
2020/12/29 08:43:52;;;;;;;4.03;1.60;;;2.70;99.90;;;;;;5016523;28;20434;-57
2020/12/29 08:46:23;;;;;;;1.30;1.20;;;2.80;99.90;;;;;;5033403;28;20559;-57
2020/12/29 08:48:53;;;;;;;2.70;1.67;;;2.80;99.90;;;;;;5026211;28;20799;-57
2020/12/29 08:51:25;;;;;;;2.50;1.50;;;2.80;99.90;;;;;;5026005;28;20462;-59
2020/12/29 08:53:51;;;;;;;4.00;1.63;;;2.80;99.90;;;;;;5021325;28;20430;-56
2020/12/29 08:56:26;;;;;;;5.03;1.70;;;2.90;99.90;;;;;;5021728;28;20437;-56
2020/12/29 08:58:53;;;;;;;2.23;1.37;;;2.80;99.90;;;;;;5027860;28;20490;-54
2020/12/29 09:01:41;;;;;;;2.17;1.93;;;2.90;99.90;;;;;;5024284;28;20469;-56
2020/12/29 09:04:30;;;;;;;4.67;1.63;;;2.80;99.90;;;;;;5034248;28;20436;-53
2020/12/29 09:06:57;;;;;;;2.37;1.60;;;2.80;99.90;;;;;;5020397;28;20448;-56
2020/12/29 09:09:23;;;;;;;5.77;2.00;;;2.80;99.90;;;;;;5026076;28;20979;-55
2020/12/29 09:12:04;;;;;;;1.80;1.60;;;2.80;99.90;;;;;;5022117;28;20584;-56
2020/12/29 09:14:30;;;;;;;4.10;1.47;;;2.70;99.90;;;;;;5025207;28;20187;-55
2020/12/29 09:17:00;;;;;;;2.20;1.30;;;2.70;99.90;;;;;;5020270;28;20468;-57
2020/12/29 09:19:26;;;;;;;2.27;1.70;;;2.70;99.90;;;;;;5019367;28;20273;-54
2020/12/29 09:22:10;;;;;;;1.63;1.53;;;2.70;99.90;;;;;;5021903;28;20529;-58
2020/12/29 09:24:37;;;;;;;6.40;2.10;;;2.70;99.90;;;;;;5018430;28;20218;-60
2020/12/29 09:27:03;;;;;;;1.57;1.47;;;2.80;99.90;;;;;;5022148;28;20469;-58
2020/12/29 09:29:33;;;;;;;1.60;1.47;;;2.70;99.90;;;;;;5019777;28;20433;-55
2020/12/29 09:32:00;;;;;;;2.07;1.10;;;2.80;99.90;;;;;;5023422;28;20468;-58
2020/12/29 09:34:26;;;;;;;2.27;1.70;;;2.80;99.90;;;;;;5018253;28;20815;-57
2020/12/29 09:36:52;;;;;;;1.90;1.33;;;2.80;99.90;;;;;;5019725;28;20454;-58
2020/12/29 09:39:17;;;;;;;2.23;1.30;;;2.80;99.90;;;;;;5022756;28;20180;-55
2020/12/29 09:41:43;;;;;;;2.13;1.60;;;2.80;99.90;;;;;;5022779;28;20264;-53
2020/12/29 09:44:09;;;;;;;7.60;1.80;;;2.80;99.80;;;;;;5022262;28;20197;-57
2020/12/29 09:46:36;;;;;;;3.17;1.70;;;2.90;99.90;;;;;;5016639;28;20285;-55
2020/12/29 09:49:02;;;;;;;1.97;1.30;;;2.90;99.90;;;;;;5024358;28;20625;-56
2020/12/29 09:51:27;;;;;;;5.47;2.33;;;3.00;99.90;;;;;;5019669;28;20454;-57
2020/12/29 09:53:53;;;;;;;2.13;1.50;;;3.20;99.90;;;;;;5022114;28;20191;-54
2020/12/29 09:56:22;;;;;;;2.70;1.50;;;3.30;99.60;;;;;;5022138;28;20460;-57
2020/12/29 09:58:48;;;;;;;4.90;1.80;;;3.50;99.20;;;;;;5024030;28;20295;-55
2020/12/29 10:01:14;;;;;;;2.03;1.60;;;3.60;99.10;;;;;;5021309;28;21718;-56
2020/12/29 10:03:40;;;;;;;4.60;2.40;;;3.70;98.60;;;;;;5023295;28;20446;-55
2020/12/29 10:06:05;;;;;;;3.23;1.60;;;3.70;97.60;;;;;;5017702;28;20443;-58
2020/12/29 10:08:31;;;;;;;1.97;1.50;;;3.80;97.70;;;;;;5021453;28;20237;-55
2020/12/29 10:10:57;;;;;;;3.47;1.47;;;3.70;97.70;;;;;;5021576;28;20216;-57
2020/12/29 10:13:23;;;;;;;8.10;1.70;;;3.60;97.80;;;;;;5021619;28;20188;-56
2020/12/29 10:15:49;;;;;;;2.30;1.37;;;3.60;97.90;;;;;;5019004;28;20437;-56
2020/12/29 10:18:15;;;;;;;2.80;1.53;;;3.60;97.00;;;;;;5024043;28;20450;-59
2020/12/29 10:20:40;;;;;;;1.97;1.63;;;3.60;97.30;;;;;;5025755;28;20960;-56
2020/12/29 10:23:06;;;;;;;2.50;1.53;;;3.60;98.00;;;;;;5025723;28;20262;-57
2020/12/29 10:25:32;;;;;;;2.70;1.43;;;3.80;98.30;;;;;;5025737;28;20191;-57
2020/12/29 10:27:58;;;;;;;1.53;1.23;;;3.90;97.60;;;;;;5025768;28;20302;-58
2020/12/29 10:30:24;;;;;;;1.70;1.43;;;3.90;97.20;;;;;;5029393;28;20524;-57
2020/12/29 10:32:50;;;;;;;1.57;1.40;;;4.00;96.80;;;;;;5025779;28;20532;-60
2020/12/29 10:35:15;;;;;;;2.00;1.40;;;4.00;96.00;;;;;;5024297;28;20677;-58
2020/12/29 10:37:41;;;;;;;2.53;1.10;;;4.00;95.60;;;;;;5023661;28;20301;-58
2020/12/29 10:40:07;;;;;;;1.80;1.37;;;3.90;95.90;;;;;;5026018;28;20274;-52
2020/12/29 10:42:33;;;;;;;2.17;1.50;;;3.80;96.20;;;;;;5026622;28;20200;-58
2020/12/29 10:44:58;;;;;;;3.50;1.50;;;3.80;96.50;;;;;;5024375;28;20210;-59
2020/12/29 10:47:24;;;;;;;5.80;1.37;;;3.70;96.00;;;;;;5024444;28;20452;-58
2020/12/29 10:49:50;;;;;;;3.87;1.60;;;3.60;96.30;;;;;;5018675;28;20195;-58
2020/12/29 10:52:15;;;;;;;4.70;1.90;;;3.60;96.30;;;;;;5023118;28;20196;-59
2020/12/29 10:54:41;;;;;;;9.03;1.80;;;3.60;97.00;;;;;;5022612;28;20188;-54
2020/12/29 10:57:07;;;;;;;1.60;1.33;;;3.70;96.30;;;;;;5021544;28;20280;-57
2020/12/29 10:59:32;;;;;;;2.80;1.30;;;3.80;95.90;;;;;;5016767;28;20418;-57
2020/12/29 11:01:58;;;;;;;1.90;1.40;;;3.80;95.70;;;;;;5022421;28;20205;-59
2020/12/29 11:04:24;;;;;;;2.37;1.23;;;3.90;95.20;;;;;;5022810;28;20179;-59
2020/12/29 11:06:50;;;;;;;2.30;1.10;;;4.00;95.80;;;;;;5024334;28;20514;-59
2020/12/29 11:09:16;;;;;;;2.00;1.20;;;4.30;96.30;;;;;;5040134;22;20233;-63
2020/12/29 11:11:42;;;;;;;1.70;1.40;;;4.70;95.70;;;;;;5027245;28;20516;-64
2020/12/29 11:14:07;;;;;;;6.77;1.80;;;5.10;93.30;;;;;;5026211;28;20797;-64
2020/12/29 11:16:33;;;;;;;2.50;1.70;;;5.30;92.90;;;;;;5026820;28;20719;-61
2020/12/29 11:18:58;;;;;;;3.73;1.87;;;5.60;92.70;;;;;;5010359;28;20273;-63
2020/12/29 11:21:24;;;;;;;1.73;1.37;;;5.90;90.90;;;;;;5028151;28;20619;-63
2020/12/29 11:23:50;;;;;;;2.13;1.40;;;6.00;89.90;;;;;;5026508;28;20268;-64
2020/12/29 11:26:17;;;;;;;1.87;1.10;;;6.00;84.70;;;;;;5029731;28;20646;-62
2020/12/29 11:28:43;;;;;;;2.50;1.27;;;6.00;87.20;;;;;;5028171;28;20247;-63
2020/12/29 11:31:20;;;;;;;1.73;1.20;;;5.90;81.30;;;;;;5029142;28;20458;-63
2020/12/29 11:33:46;;;;;;;2.20;1.60;;;5.60;84.20;;;;;;5029383;28;20433;-62
2020/12/29 11:36:21;;;;;;;2.20;1.73;;;5.30;89.60;;;;;;5027408;28;20430;-62
2020/12/29 11:38:47;;;;;;;2.13;1.53;;;5.10;91.30;;;;;;5022216;28;20520;-63
2020/12/29 11:41:13;;;;;;;2.67;1.60;;;4.90;92.00;;;;;;5026989;28;20430;-65
2020/12/29 11:43:40;;;;;;;4.13;1.80;;;4.70;91.50;;;;;;5030105;28;20954;-62
2020/12/29 11:46:07;;;;;;;7.30;2.63;;;4.60;91.90;;;;;;5031031;28;20920;-62
2020/12/29 11:48:33;;;;;;;3.13;1.80;;;4.50;91.70;;;;;;5019040;28;20456;-64
2020/12/29 11:50:59;;;;;;;2.63;1.80;;;4.40;92.20;;;;;;5029543;28;21083;-61
2020/12/29 11:53:25;;;;;;;3.80;2.23;;;4.20;92.80;;;;;;5009175;28;20187;-65
2020/12/29 11:55:51;;;;;;;10.47;2.70;;;4.20;93.30;;;;;;5014416;28;20959;-60
2020/12/29 11:58:17;;;;;;;4.80;2.50;;;4.30;93.80;;;;;;5012466;28;20462;-57
2020/12/29 12:00:43;;;;;;;3.47;2.10;;;4.40;93.70;;;;;;5012648;28;20375;-65
2020/12/29 12:03:09;;;;;;;2.50;1.63;;;4.50;94.20;;;;;;5016613;28;20540;-65
2020/12/29 12:05:34;;;;;;;3.90;1.57;;;4.50;93.90;;;;;;5017382;28;20476;-63
2020/12/29 12:08:00;;;;;;;1.63;1.53;;;4.60;92.50;;;;;;5018991;28;20220;-63
2020/12/29 12:10:26;;;;;;;3.43;1.80;;;4.50;92.80;;;;;;5018391;28;20191;-63
2020/12/29 12:12:52;;;;;;;2.97;1.90;;;4.50;93.60;;;;;;5018339;28;20522;-62
2020/12/29 12:15:20;;;;;;;2.80;1.80;;;4.40;94.00;;;;;;5021230;28;21198;-62
2020/12/29 12:17:46;;;;;;;5.67;1.63;;;4.40;94.20;;;;;;5023874;28;20208;-63
2020/12/29 12:20:11;;;;;;;1.37;1.27;;;4.30;94.40;;;;;;5008117;28;20454;-62
2020/12/29 12:22:37;;;;;;;16.87;2.23;;;4.30;94.20;;;;;;5026947;28;20193;-65
2020/12/29 12:25:06;;;;;;;7.30;1.73;;;4.40;94.40;;;;;;5028057;28;20214;-64
2020/12/29 12:27:32;;;;;;;2.70;1.40;;;4.50;94.30;;;;;;5027093;28;20845;-62
2020/12/29 12:29:57;;;;;;;2.20;1.53;;;4.60;94.40;;;;;;5024472;28;20961;-65
2020/12/29 12:32:24;;;;;;;2.80;1.93;;;4.60;94.20;;;;;;5025847;28;20218;-66
2020/12/29 12:34:49;;;;;;;3.00;1.77;;;4.70;94.30;;;;;;5020899;28;20427;-65
2020/12/29 12:37:16;;;;;;;2.70;1.70;;;4.70;93.60;;;;;;5019113;28;20678;-62
2020/12/29 12:39:41;;;;;;;5.80;1.50;;;4.70;93.50;;;;;;5020335;28;20228;-65
2020/12/29 12:42:08;;;;;;;2.60;2.07;;;4.70;93.80;;;;;;5015916;28;20466;-62
2020/12/29 12:44:35;;;;;;;1.87;1.43;;;4.70;94.50;;;;;;5012928;28;20205;-64
2020/12/29 12:47:01;;;;;;;1.80;1.60;;;4.80;94.70;;;;;;5017515;28;20435;-64
2020/12/29 12:49:26;;;;;;;2.10;1.30;;;4.90;94.60;;;;;;5016501;28;21015;-60
2020/12/29 12:51:55;;;;;;;2.80;1.93;;;5.10;93.90;;;;;;5017167;28;20812;-68
2020/12/29 12:54:26;;;;;;;1.33;1.23;;;5.10;93.50;;;;;;5023043;28;20373;-65
2020/12/29 12:56:55;;;;;;;3.80;1.30;;;5.10;93.50;;;;;;5021887;28;20517;-65
2020/12/29 12:59:21;;;;;;;2.90;1.27;;;5.10;92.30;;;;;;5025953;28;20447;-66
2020/12/29 13:01:52;;;;;;;1.07;1.07;;;5.00;91.60;;;;;;5024220;28;20487;-69
2020/12/29 13:04:18;;;;;;;1.90;1.27;;;4.90;91.70;;;;;;5020541;28;20871;-65